sensor_id;sensor_type;location;lat;lon;timestamp;P1;durP1;ratioP1;P2;durP2;ratioP2
69185;SDS011;56298;49.246;9.410;2022-12-07T00:03:40;15.93;;;9.05;;
69185;SDS011;56298;49.246;9.410;2022-12-07T00:06:08;15.93;;;9.40;;
69185;SDS011;56298;49.246;9.410;2022-12-07T00:08:35;16.80;;;8.85;;
69185;SDS011;56298;49.246;9.410;2022-12-07T00:11:04;13.80;;;8.10;;
69185;SDS011;56298;49.246;9.410;2022-12-07T00:13:30;13.80;;;7.75;;
69185;SDS011;56298;49.246;9.410;2022-12-07T00:15:59;13.68;;;7.97;;
69185;SDS011;56298;49.246;9.410;2022-12-07T00:18:26;13.80;;;7.50;;
69185;SDS011;56298;49.246;9.410;2022-12-07T00:20:52;13.43;;;7.30;;
69185;SDS011;56298;49.246;9.410;2022-12-07T00:23:17;13.90;;;8.03;;
69185;SDS011;56298;49.246;9.410;2022-12-07T00:25:42;17.10;;;8.27;;
69185;SDS011;56298;49.246;9.410;2022-12-07T00:28:07;16.07;;;8.20;;
69185;SDS011;56298;49.246;9.410;2022-12-07T00:30:34;15.67;;;8.60;;
69185;SDS011;56298;49.246;9.410;2022-12-07T00:32:59;17.90;;;10.17;;
69185;SDS011;56298;49.246;9.410;2022-12-07T00:35:25;20.30;;;9.93;;
69185;SDS011;56298;49.246;9.410;2022-12-07T00:37:50;21.47;;;10.60;;
69185;SDS011;56298;49.246;9.410;2022-12-07T00:40:15;24.85;;;10.43;;
69185;SDS011;56298;49.246;9.410;2022-12-07T00:42:40;20.70;;;9.87;;
69185;SDS011;56298;49.246;9.410;2022-12-07T00:45:06;19.50;;;9.90;;
69185;SDS011;56298;49.246;9.410;2022-12-07T00:47:32;15.77;;;9.00;;
69185;SDS011;56298;49.246;9.410;2022-12-07T00:49:57;20.10;;;9.60;;
69185;SDS011;56298;49.246;9.410;2022-12-07T00:52:22;17.63;;;9.67;;
69185;SDS011;56298;49.246;9.410;2022-12-07T00:54:47;18.13;;;10.03;;
69185;SDS011;56298;49.246;9.410;2022-12-07T00:57:13;20.97;;;11.20;;
69185;SDS011;56298;49.246;9.410;2022-12-07T00:59:38;22.67;;;12.20;;
69185;SDS011;56298;49.246;9.410;2022-12-07T01:02:03;22.10;;;12.60;;
69185;SDS011;56298;49.246;9.410;2022-12-07T01:04:28;22.67;;;11.90;;
69185;SDS011;56298;49.246;9.410;2022-12-07T01:06:54;20.83;;;11.53;;
69185;SDS011;56298;49.246;9.410;2022-12-07T01:09:19;20.77;;;10.80;;
69185;SDS011;56298;49.246;9.410;2022-12-07T01:11:45;17.57;;;10.03;;
69185;SDS011;56298;49.246;9.410;2022-12-07T01:14:10;22.30;;;11.27;;
69185;SDS011;56298;49.246;9.410;2022-12-07T01:16:35;18.60;;;10.40;;
69185;SDS011;56298;49.246;9.410;2022-12-07T01:19:01;18.07;;;9.70;;
69185;SDS011;56298;49.246;9.410;2022-12-07T01:21:30;18.35;;;9.73;;
69185;SDS011;56298;49.246;9.410;2022-12-07T01:24:02;17.70;;;9.60;;
69185;SDS011;56298;49.246;9.410;2022-12-07T01:26:29;15.77;;;8.77;;
69185;SDS011;56298;49.246;9.410;2022-12-07T01:28:55;17.23;;;9.47;;
69185;SDS011;56298;49.246;9.410;2022-12-07T01:31:23;17.87;;;9.87;;
69185;SDS011;56298;49.246;9.410;2022-12-07T01:33:51;17.30;;;9.77;;
69185;SDS011;56298;49.246;9.410;2022-12-07T01:36:19;15.43;;;9.00;;
69185;SDS011;56298;49.246;9.410;2022-12-07T01:38:49;18.55;;;9.30;;
69185;SDS011;56298;49.246;9.410;2022-12-07T01:41:17;16.00;;;8.57;;
69185;SDS011;56298;49.246;9.410;2022-12-07T01:46:50;17.08;;;8.65;;
69185;SDS011;56298;49.246;9.410;2022-12-07T01:49:23;17.83;;;9.10;;
69185;SDS011;56298;49.246;9.410;2022-12-07T01:51:53;15.80;;;8.53;;
69185;SDS011;56298;49.246;9.410;2022-12-07T01:54:23;15.10;;;8.50;;
69185;SDS011;56298;49.246;9.410;2022-12-07T01:56:51;15.47;;;8.17;;
69185;SDS011;56298;49.246;9.410;2022-12-07T01:59:18;16.35;;;8.65;;
69185;SDS011;56298;49.246;9.410;2022-12-07T02:01:46;14.37;;;8.10;;
69185;SDS011;56298;49.246;9.410;2022-12-07T02:04:11;16.30;;;8.30;;
69185;SDS011;56298;49.246;9.410;2022-12-07T02:06:37;15.90;;;8.25;;
69185;SDS011;56298;49.246;9.410;2022-12-07T02:09:03;17.20;;;8.85;;
69185;SDS011;56298;49.246;9.410;2022-12-07T02:11:29;15.27;;;8.53;;
69185;SDS011;56298;49.246;9.410;2022-12-07T02:13:54;16.43;;;8.27;;
69185;SDS011;56298;49.246;9.410;2022-12-07T02:16:29;14.20;;;8.03;;
69185;SDS011;56298;49.246;9.410;2022-12-07T02:19:08;15.13;;;8.15;;
69185;SDS011;56298;49.246;9.410;2022-12-07T02:24:57;17.38;;;9.00;;
69185;SDS011;56298;49.246;9.410;2022-12-07T02:27:39;16.02;;;8.63;;
69185;SDS011;56298;49.246;9.410;2022-12-07T02:30:12;17.27;;;8.80;;
69185;SDS011;56298;49.246;9.410;2022-12-07T02:35:33;25.83;;;12.80;;
69185;SDS011;56298;49.246;9.410;2022-12-07T02:38:16;17.58;;;9.07;;
69185;SDS011;56298;49.246;9.410;2022-12-07T02:40:53;15.63;;;8.25;;
69185;SDS011;56298;49.246;9.410;2022-12-07T02:45:54;16.70;;;8.40;;
69185;SDS011;56298;49.246;9.410;2022-12-07T02:48:25;16.07;;;8.50;;
69185;SDS011;56298;49.246;9.410;2022-12-07T02:50:52;15.90;;;7.97;;
69185;SDS011;56298;49.246;9.410;2022-12-07T02:53:31;15.23;;;7.60;;
69185;SDS011;56298;49.246;9.410;2022-12-07T02:56:09;13.70;;;7.10;;
69185;SDS011;56298;49.246;9.410;2022-12-07T03:01:37;15.15;;;7.30;;
69185;SDS011;56298;49.246;9.410;2022-12-07T03:04:12;12.23;;;6.95;;
69185;SDS011;56298;49.246;9.410;2022-12-07T03:06:56;15.77;;;7.82;;
69185;SDS011;56298;49.246;9.410;2022-12-07T03:09:32;13.88;;;7.50;;
69185;SDS011;56298;49.246;9.410;2022-12-07T03:12:12;15.90;;;8.00;;
69185;SDS011;56298;49.246;9.410;2022-12-07T03:14:49;16.02;;;8.00;;
69185;SDS011;56298;49.246;9.410;2022-12-07T03:17:23;17.85;;;8.30;;
69185;SDS011;56298;49.246;9.410;2022-12-07T03:19:52;15.13;;;8.50;;
69185;SDS011;56298;49.246;9.410;2022-12-07T03:22:22;15.60;;;8.02;;
69185;SDS011;56298;49.246;9.410;2022-12-07T03:24:52;16.13;;;8.10;;
69185;SDS011;56298;49.246;9.410;2022-12-07T03:27:25;15.77;;;8.15;;
69185;SDS011;56298;49.246;9.410;2022-12-07T03:30:00;16.52;;;8.40;;
69185;SDS011;56298;49.246;9.410;2022-12-07T03:37:48;16.93;;;8.47;;
69185;SDS011;56298;49.246;9.410;2022-12-07T03:40:22;14.90;;;8.35;;
69185;SDS011;56298;49.246;9.410;2022-12-07T03:42:53;14.67;;;7.70;;
69185;SDS011;56298;49.246;9.410;2022-12-07T03:45:21;17.35;;;8.40;;
69185;SDS011;56298;49.246;9.410;2022-12-07T03:47:54;16.55;;;8.60;;
69185;SDS011;56298;49.246;9.410;2022-12-07T03:53:24;14.10;;;8.05;;
69185;SDS011;56298;49.246;9.410;2022-12-07T03:55:56;14.90;;;7.90;;
69185;SDS011;56298;49.246;9.410;2022-12-07T03:58:23;14.40;;;7.67;;
69185;SDS011;56298;49.246;9.410;2022-12-07T04:00:50;15.97;;;7.80;;
69185;SDS011;56298;49.246;9.410;2022-12-07T04:03:16;15.85;;;7.85;;
69185;SDS011;56298;49.246;9.410;2022-12-07T04:05:41;15.15;;;8.20;;
69185;SDS011;56298;49.246;9.410;2022-12-07T04:08:07;15.15;;;7.90;;
69185;SDS011;56298;49.246;9.410;2022-12-07T04:10:33;15.57;;;8.17;;
69185;SDS011;56298;49.246;9.410;2022-12-07T04:12:58;14.07;;;7.80;;
69185;SDS011;56298;49.246;9.410;2022-12-07T04:15:23;14.60;;;8.10;;
69185;SDS011;56298;49.246;9.410;2022-12-07T04:17:49;15.93;;;8.40;;
69185;SDS011;56298;49.246;9.410;2022-12-07T04:20:14;15.35;;;8.50;;
69185;SDS011;56298;49.246;9.410;2022-12-07T04:22:39;16.00;;;8.53;;
69185;SDS011;56298;49.246;9.410;2022-12-07T04:25:05;15.20;;;8.60;;
69185;SDS011;56298;49.246;9.410;2022-12-07T04:27:30;17.10;;;9.73;;
69185;SDS011;56298;49.246;9.410;2022-12-07T04:29:56;17.30;;;9.27;;
69185;SDS011;56298;49.246;9.410;2022-12-07T04:32:21;17.63;;;9.53;;
69185;SDS011;56298;49.246;9.410;2022-12-07T04:34:48;19.35;;;10.20;;
69185;SDS011;56298;49.246;9.410;2022-12-07T04:37:13;18.10;;;10.57;;
69185;SDS011;56298;49.246;9.410;2022-12-07T04:39:38;18.07;;;10.47;;
69185;SDS011;56298;49.246;9.410;2022-12-07T04:42:03;19.77;;;10.80;;
69185;SDS011;56298;49.246;9.410;2022-12-07T04:44:29;22.50;;;12.13;;
69185;SDS011;56298;49.246;9.410;2022-12-07T04:46:55;19.92;;;11.52;;
69185;SDS011;56298;49.246;9.410;2022-12-07T04:49:22;18.67;;;10.63;;
69185;SDS011;56298;49.246;9.410;2022-12-07T04:51:47;17.65;;;10.60;;
69185;SDS011;56298;49.246;9.410;2022-12-07T04:54:13;18.60;;;10.77;;
69185;SDS011;56298;49.246;9.410;2022-12-07T04:56:40;18.40;;;10.50;;
69185;SDS011;56298;49.246;9.410;2022-12-07T04:59:06;16.87;;;9.37;;
69185;SDS011;56298;49.246;9.410;2022-12-07T05:01:32;16.58;;;9.95;;
69185;SDS011;56298;49.246;9.410;2022-12-07T05:03:58;26.35;;;14.82;;
69185;SDS011;56298;49.246;9.410;2022-12-07T05:06:24;32.13;;;17.83;;
69185;SDS011;56298;49.246;9.410;2022-12-07T05:08:49;26.83;;;16.73;;
69185;SDS011;56298;49.246;9.410;2022-12-07T05:11:14;21.90;;;12.80;;
69185;SDS011;56298;49.246;9.410;2022-12-07T05:14:00;18.60;;;11.70;;
69185;SDS011;56298;49.246;9.410;2022-12-07T05:16:26;19.52;;;11.48;;
69185;SDS011;56298;49.246;9.410;2022-12-07T05:18:52;18.30;;;10.55;;
69185;SDS011;56298;49.246;9.410;2022-12-07T05:21:17;20.10;;;11.20;;
69185;SDS011;56298;49.246;9.410;2022-12-07T05:23:43;19.58;;;11.65;;
69185;SDS011;56298;49.246;9.410;2022-12-07T05:26:08;18.43;;;10.43;;
69185;SDS011;56298;49.246;9.410;2022-12-07T05:28:33;18.80;;;10.67;;
69185;SDS011;56298;49.246;9.410;2022-12-07T05:30:58;18.70;;;11.00;;
69185;SDS011;56298;49.246;9.410;2022-12-07T05:33:24;17.30;;;10.23;;
69185;SDS011;56298;49.246;9.410;2022-12-07T05:35:49;17.80;;;10.20;;
69185;SDS011;56298;49.246;9.410;2022-12-07T05:38:14;18.23;;;10.27;;
69185;SDS011;56298;49.246;9.410;2022-12-07T05:40:40;17.67;;;9.83;;
69185;SDS011;56298;49.246;9.410;2022-12-07T05:43:05;17.43;;;9.97;;
69185;SDS011;56298;49.246;9.410;2022-12-07T05:45:30;17.20;;;9.75;;
69185;SDS011;56298;49.246;9.410;2022-12-07T05:47:55;16.03;;;9.73;;
69185;SDS011;56298;49.246;9.410;2022-12-07T05:50:21;17.50;;;9.60;;
69185;SDS011;56298;49.246;9.410;2022-12-07T05:52:46;16.87;;;9.97;;
69185;SDS011;56298;49.246;9.410;2022-12-07T05:55:11;18.10;;;10.70;;
69185;SDS011;56298;49.246;9.410;2022-12-07T05:57:36;20.45;;;11.75;;
69185;SDS011;56298;49.246;9.410;2022-12-07T06:00:02;20.70;;;11.80;;
69185;SDS011;56298;49.246;9.410;2022-12-07T06:02:28;18.47;;;10.90;;
69185;SDS011;56298;49.246;9.410;2022-12-07T06:04:53;19.23;;;11.23;;
69185;SDS011;56298;49.246;9.410;2022-12-07T06:07:19;20.33;;;11.23;;
69185;SDS011;56298;49.246;9.410;2022-12-07T06:09:44;19.00;;;11.50;;
69185;SDS011;56298;49.246;9.410;2022-12-07T06:12:10;19.13;;;11.53;;
69185;SDS011;56298;49.246;9.410;2022-12-07T06:14:55;20.87;;;11.83;;
69185;SDS011;56298;49.246;9.410;2022-12-07T06:17:20;20.17;;;11.73;;
69185;SDS011;56298;49.246;9.410;2022-12-07T06:19:46;21.67;;;11.60;;
69185;SDS011;56298;49.246;9.410;2022-12-07T06:22:11;26.07;;;14.93;;
69185;SDS011;56298;49.246;9.410;2022-12-07T06:24:37;26.60;;;15.63;;
69185;SDS011;56298;49.246;9.410;2022-12-07T06:27:03;28.47;;;15.37;;
69185;SDS011;56298;49.246;9.410;2022-12-07T06:29:29;23.02;;;13.43;;
69185;SDS011;56298;49.246;9.410;2022-12-07T06:31:55;22.23;;;12.73;;
69185;SDS011;56298;49.246;9.410;2022-12-07T06:34:20;22.70;;;12.32;;
69185;SDS011;56298;49.246;9.410;2022-12-07T06:36:47;20.37;;;11.90;;
69185;SDS011;56298;49.246;9.410;2022-12-07T06:39:16;20.30;;;12.13;;
69185;SDS011;56298;49.246;9.410;2022-12-07T06:41:42;24.50;;;12.45;;
69185;SDS011;56298;49.246;9.410;2022-12-07T06:44:08;23.30;;;13.30;;
69185;SDS011;56298;49.246;9.410;2022-12-07T06:46:33;20.87;;;11.83;;
69185;SDS011;56298;49.246;9.410;2022-12-07T06:49:00;23.83;;;12.55;;
69185;SDS011;56298;49.246;9.410;2022-12-07T06:51:26;21.27;;;12.07;;
69185;SDS011;56298;49.246;9.410;2022-12-07T06:53:51;22.33;;;12.70;;
69185;SDS011;56298;49.246;9.410;2022-12-07T06:56:16;27.33;;;14.67;;
69185;SDS011;56298;49.246;9.410;2022-12-07T06:58:41;28.47;;;16.80;;
69185;SDS011;56298;49.246;9.410;2022-12-07T07:01:10;26.33;;;14.53;;
69185;SDS011;56298;49.246;9.410;2022-12-07T07:03:37;25.77;;;15.60;;
69185;SDS011;56298;49.246;9.410;2022-12-07T07:06:03;25.23;;;14.10;;
69185;SDS011;56298;49.246;9.410;2022-12-07T07:08:28;27.47;;;14.80;;
69185;SDS011;56298;49.246;9.410;2022-12-07T07:10:54;24.33;;;14.27;;
69185;SDS011;56298;49.246;9.410;2022-12-07T07:13:19;22.90;;;14.37;;
69185;SDS011;56298;49.246;9.410;2022-12-07T07:15:44;24.67;;;14.17;;
69185;SDS011;56298;49.246;9.410;2022-12-07T07:18:10;23.70;;;13.88;;
69185;SDS011;56298;49.246;9.410;2022-12-07T07:20:35;21.17;;;12.52;;
69185;SDS011;56298;49.246;9.410;2022-12-07T07:23:01;22.60;;;12.43;;
69185;SDS011;56298;49.246;9.410;2022-12-07T07:25:27;20.50;;;12.20;;
69185;SDS011;56298;49.246;9.410;2022-12-07T07:27:52;20.67;;;11.57;;
69185;SDS011;56298;49.246;9.410;2022-12-07T07:30:17;20.20;;;11.73;;
69185;SDS011;56298;49.246;9.410;2022-12-07T07:32:43;22.23;;;11.70;;
69185;SDS011;56298;49.246;9.410;2022-12-07T07:35:08;20.03;;;11.57;;
69185;SDS011;56298;49.246;9.410;2022-12-07T07:37:33;21.50;;;11.90;;
69185;SDS011;56298;49.246;9.410;2022-12-07T07:39:59;19.77;;;11.63;;
69185;SDS011;56298;49.246;9.410;2022-12-07T07:42:24;18.93;;;10.83;;
69185;SDS011;56298;49.246;9.410;2022-12-07T07:44:49;18.73;;;10.97;;
69185;SDS011;56298;49.246;9.410;2022-12-07T07:47:14;22.63;;;11.75;;
69185;SDS011;56298;49.246;9.410;2022-12-07T07:49:40;22.83;;;11.80;;
69185;SDS011;56298;49.246;9.410;2022-12-07T07:52:05;20.40;;;11.73;;
69185;SDS011;56298;49.246;9.410;2022-12-07T07:54:31;21.73;;;11.50;;
69185;SDS011;56298;49.246;9.410;2022-12-07T07:56:56;18.33;;;10.93;;
69185;SDS011;56298;49.246;9.410;2022-12-07T07:59:22;21.37;;;11.47;;
69185;SDS011;56298;49.246;9.410;2022-12-07T08:01:47;21.85;;;11.88;;
69185;SDS011;56298;49.246;9.410;2022-12-07T08:04:13;19.77;;;11.50;;
69185;SDS011;56298;49.246;9.410;2022-12-07T08:06:38;21.77;;;12.40;;
69185;SDS011;56298;49.246;9.410;2022-12-07T08:09:03;20.97;;;12.27;;
69185;SDS011;56298;49.246;9.410;2022-12-07T08:11:30;33.65;;;16.52;;
69185;SDS011;56298;49.246;9.410;2022-12-07T08:13:56;34.92;;;17.98;;
69185;SDS011;56298;49.246;9.410;2022-12-07T08:16:21;26.73;;;14.73;;
69185;SDS011;56298;49.246;9.410;2022-12-07T08:18:46;22.33;;;12.13;;
69185;SDS011;56298;49.246;9.410;2022-12-07T08:21:12;21.73;;;12.03;;
69185;SDS011;56298;49.246;9.410;2022-12-07T08:23:39;20.23;;;12.07;;
69185;SDS011;56298;49.246;9.410;2022-12-07T08:26:08;21.60;;;12.27;;
69185;SDS011;56298;49.246;9.410;2022-12-07T08:28:37;25.85;;;11.82;;
69185;SDS011;56298;49.246;9.410;2022-12-07T08:31:04;19.42;;;11.13;;
69185;SDS011;56298;49.246;9.410;2022-12-07T08:33:34;20.02;;;11.52;;
69185;SDS011;56298;49.246;9.410;2022-12-07T08:36:03;20.05;;;11.50;;
69185;SDS011;56298;49.246;9.410;2022-12-07T08:38:30;21.25;;;11.40;;
69185;SDS011;56298;49.246;9.410;2022-12-07T08:40:56;21.60;;;11.53;;
69185;SDS011;56298;49.246;9.410;2022-12-07T08:43:23;22.88;;;12.60;;
69185;SDS011;56298;49.246;9.410;2022-12-07T08:45:49;23.13;;;12.70;;
69185;SDS011;56298;49.246;9.410;2022-12-07T08:48:27;23.15;;;12.95;;
69185;SDS011;56298;49.246;9.410;2022-12-07T08:50:53;21.50;;;12.57;;
69185;SDS011;56298;49.246;9.410;2022-12-07T08:53:18;25.70;;;14.83;;
69185;SDS011;56298;49.246;9.410;2022-12-07T08:55:44;24.07;;;14.07;;
69185;SDS011;56298;49.246;9.410;2022-12-07T08:58:10;22.65;;;13.00;;
69185;SDS011;56298;49.246;9.410;2022-12-07T09:00:36;22.60;;;13.33;;
69185;SDS011;56298;49.246;9.410;2022-12-07T09:03:01;22.30;;;13.67;;
69185;SDS011;56298;49.246;9.410;2022-12-07T09:07:57;24.45;;;13.20;;
69185;SDS011;56298;49.246;9.410;2022-12-07T09:10:26;24.38;;;12.68;;
69185;SDS011;56298;49.246;9.410;2022-12-07T09:12:51;24.50;;;12.30;;
69185;SDS011;56298;49.246;9.410;2022-12-07T09:15:16;23.20;;;12.10;;
69185;SDS011;56298;49.246;9.410;2022-12-07T09:17:42;23.73;;;12.90;;
69185;SDS011;56298;49.246;9.410;2022-12-07T09:20:07;22.13;;;12.47;;
69185;SDS011;56298;49.246;9.410;2022-12-07T09:22:33;21.27;;;11.77;;
69185;SDS011;56298;49.246;9.410;2022-12-07T09:24:58;20.03;;;11.10;;
69185;SDS011;56298;49.246;9.410;2022-12-07T09:27:24;19.83;;;11.00;;
69185;SDS011;56298;49.246;9.410;2022-12-07T09:29:50;21.40;;;11.77;;
69185;SDS011;56298;49.246;9.410;2022-12-07T09:32:15;18.30;;;11.00;;
69185;SDS011;56298;49.246;9.410;2022-12-07T09:34:40;20.23;;;11.53;;
69185;SDS011;56298;49.246;9.410;2022-12-07T09:37:06;23.27;;;11.30;;
69185;SDS011;56298;49.246;9.410;2022-12-07T09:39:31;21.93;;;12.20;;
69185;SDS011;56298;49.246;9.410;2022-12-07T09:41:57;20.67;;;11.07;;
69185;SDS011;56298;49.246;9.410;2022-12-07T09:44:24;26.52;;;13.10;;
69185;SDS011;56298;49.246;9.410;2022-12-07T09:46:50;23.53;;;11.50;;
69185;SDS011;56298;49.246;9.410;2022-12-07T09:49:18;26.85;;;11.88;;
69185;SDS011;56298;49.246;9.410;2022-12-07T09:51:46;29.60;;;16.13;;
69185;SDS011;56298;49.246;9.410;2022-12-07T09:54:15;39.77;;;19.00;;
69185;SDS011;56298;49.246;9.410;2022-12-07T09:56:44;31.97;;;17.57;;
69185;SDS011;56298;49.246;9.410;2022-12-07T09:59:12;21.15;;;12.82;;
69185;SDS011;56298;49.246;9.410;2022-12-07T10:01:46;26.83;;;12.40;;
69185;SDS011;56298;49.246;9.410;2022-12-07T10:04:17;22.77;;;13.65;;
69185;SDS011;56298;49.246;9.410;2022-12-07T10:06:45;21.57;;;12.80;;
69185;SDS011;56298;49.246;9.410;2022-12-07T10:09:13;24.75;;;14.00;;
69185;SDS011;56298;49.246;9.410;2022-12-07T10:14:37;21.67;;;11.97;;
69185;SDS011;56298;49.246;9.410;2022-12-07T10:20:13;20.73;;;11.32;;
69185;SDS011;56298;49.246;9.410;2022-12-07T10:22:55;20.10;;;11.30;;
69185;SDS011;56298;49.246;9.410;2022-12-07T10:25:34;20.27;;;11.40;;
69185;SDS011;56298;49.246;9.410;2022-12-07T10:30:32;23.42;;;12.18;;
69185;SDS011;56298;49.246;9.410;2022-12-07T10:33:29;20.85;;;11.73;;
69185;SDS011;56298;49.246;9.410;2022-12-07T10:35:55;19.92;;;11.50;;
69185;SDS011;56298;49.246;9.410;2022-12-07T10:38:21;19.70;;;11.20;;
69185;SDS011;56298;49.246;9.410;2022-12-07T10:40:46;20.70;;;11.23;;
69185;SDS011;56298;49.246;9.410;2022-12-07T10:57:47;19.42;;;10.68;;
69185;SDS011;56298;49.246;9.410;2022-12-07T11:00:25;21.80;;;10.63;;
69185;SDS011;56298;49.246;9.410;2022-12-07T11:05:45;20.45;;;10.30;;
69185;SDS011;56298;49.246;9.410;2022-12-07T11:14:22;19.57;;;10.80;;
69185;SDS011;56298;49.246;9.410;2022-12-07T11:16:57;18.83;;;10.80;;
69185;SDS011;56298;49.246;9.410;2022-12-07T11:30:28;19.93;;;11.03;;
69185;SDS011;56298;49.246;9.410;2022-12-07T11:33:19;20.25;;;11.60;;
69185;SDS011;56298;49.246;9.410;2022-12-07T11:35:56;24.17;;;12.90;;
69185;SDS011;56298;49.246;9.410;2022-12-07T11:39:16;25.13;;;12.80;;
69185;SDS011;56298;49.246;9.410;2022-12-07T11:41:25;23.30;;;11.95;;
69185;SDS011;56298;49.246;9.410;2022-12-07T11:46:26;24.95;;;14.85;;
69185;SDS011;56298;49.246;9.410;2022-12-07T11:51:24;26.07;;;15.43;;
69185;SDS011;56298;49.246;9.410;2022-12-07T11:53:55;20.70;;;12.23;;
69185;SDS011;56298;49.246;9.410;2022-12-07T11:56:26;18.35;;;10.60;;
69185;SDS011;56298;49.246;9.410;2022-12-07T11:59:01;27.35;;;14.75;;
69185;SDS011;56298;49.246;9.410;2022-12-07T12:06:48;42.05;;;22.60;;
69185;SDS011;56298;49.246;9.410;2022-12-07T12:22:56;28.70;;;15.95;;
69185;SDS011;56298;49.246;9.410;2022-12-07T12:25:27;31.55;;;16.10;;
69185;SDS011;56298;49.246;9.410;2022-12-07T12:27:57;26.90;;;13.23;;
69185;SDS011;56298;49.246;9.410;2022-12-07T12:30:34;28.92;;;14.57;;
69185;SDS011;56298;49.246;9.410;2022-12-07T12:44:02;23.02;;;12.48;;
69185;SDS011;56298;49.246;9.410;2022-12-07T12:48:53;20.27;;;11.00;;
69185;SDS011;56298;49.246;9.410;2022-12-07T12:51:35;21.45;;;12.13;;
69185;SDS011;56298;49.246;9.410;2022-12-07T12:54:04;19.05;;;11.20;;
69185;SDS011;56298;49.246;9.410;2022-12-07T13:15:38;29.83;;;17.70;;
69185;SDS011;56298;49.246;9.410;2022-12-07T13:20:40;20.88;;;12.00;;
69185;SDS011;56298;49.246;9.410;2022-12-07T13:23:08;19.42;;;11.70;;
69185;SDS011;56298;49.246;9.410;2022-12-07T13:25:43;18.03;;;11.73;;
69185;SDS011;56298;49.246;9.410;2022-12-07T13:28:15;19.88;;;11.57;;
69185;SDS011;56298;49.246;9.410;2022-12-07T13:30:44;21.10;;;12.23;;
69185;SDS011;56298;49.246;9.410;2022-12-07T13:33:14;20.35;;;13.57;;
69185;SDS011;56298;49.246;9.410;2022-12-07T13:35:43;21.47;;;12.83;;
69185;SDS011;56298;49.246;9.410;2022-12-07T13:38:25;20.87;;;12.03;;
69185;SDS011;56298;49.246;9.410;2022-12-07T13:41:14;20.02;;;11.50;;
69185;SDS011;56298;49.246;9.410;2022-12-07T13:43:45;19.83;;;11.70;;
69185;SDS011;56298;49.246;9.410;2022-12-07T13:46:13;20.45;;;11.73;;
69185;SDS011;56298;49.246;9.410;2022-12-07T13:48:48;24.88;;;15.77;;
69185;SDS011;56298;49.246;9.410;2022-12-07T13:53:53;21.08;;;11.57;;
69185;SDS011;56298;49.246;9.410;2022-12-07T13:56:25;18.58;;;10.90;;
69185;SDS011;56298;49.246;9.410;2022-12-07T13:58:56;18.88;;;11.38;;
69185;SDS011;56298;49.246;9.410;2022-12-07T14:01:21;18.50;;;11.40;;
69185;SDS011;56298;49.246;9.410;2022-12-07T14:03:47;19.75;;;11.45;;
69185;SDS011;56298;49.246;9.410;2022-12-07T14:06:14;24.90;;;13.00;;
69185;SDS011;56298;49.246;9.410;2022-12-07T14:08:50;23.63;;;12.73;;
69185;SDS011;56298;49.246;9.410;2022-12-07T14:11:17;23.53;;;13.33;;
69185;SDS011;56298;49.246;9.410;2022-12-07T14:14:03;49.83;;;24.52;;
69185;SDS011;56298;49.246;9.410;2022-12-07T14:16:34;43.55;;;22.10;;
69185;SDS011;56298;49.246;9.410;2022-12-07T14:19:05;47.03;;;22.80;;
69185;SDS011;56298;49.246;9.410;2022-12-07T14:22:05;37.53;;;18.50;;
69185;SDS011;56298;49.246;9.410;2022-12-07T14:24:33;31.70;;;16.37;;
69185;SDS011;56298;49.246;9.410;2022-12-07T14:27:15;24.65;;;13.68;;
69185;SDS011;56298;49.246;9.410;2022-12-07T14:29:50;26.48;;;14.75;;
69185;SDS011;56298;49.246;9.410;2022-12-07T14:34:54;22.93;;;14.13;;
69185;SDS011;56298;49.246;9.410;2022-12-07T14:37:21;28.92;;;16.65;;
69185;SDS011;56298;49.246;9.410;2022-12-07T14:39:46;26.73;;;15.17;;
69185;SDS011;56298;49.246;9.410;2022-12-07T14:42:11;24.70;;;14.37;;
69185;SDS011;56298;49.246;9.410;2022-12-07T14:44:36;26.77;;;15.60;;
69185;SDS011;56298;49.246;9.410;2022-12-07T14:47:02;27.10;;;15.10;;
69185;SDS011;56298;49.246;9.410;2022-12-07T14:49:27;22.23;;;13.57;;
69185;SDS011;56298;49.246;9.410;2022-12-07T14:51:52;26.30;;;12.40;;
69185;SDS011;56298;49.246;9.410;2022-12-07T14:54:19;20.92;;;11.27;;
69185;SDS011;56298;49.246;9.410;2022-12-07T14:56:47;24.33;;;12.13;;
69185;SDS011;56298;49.246;9.410;2022-12-07T14:59:16;20.55;;;11.40;;
69185;SDS011;56298;49.246;9.410;2022-12-07T15:01:42;20.70;;;11.18;;
69185;SDS011;56298;49.246;9.410;2022-12-07T15:04:07;22.03;;;11.90;;
69185;SDS011;56298;49.246;9.410;2022-12-07T15:06:32;23.80;;;11.70;;
69185;SDS011;56298;49.246;9.410;2022-12-07T15:08:57;23.88;;;11.45;;
69185;SDS011;56298;49.246;9.410;2022-12-07T15:11:23;21.40;;;11.43;;
69185;SDS011;56298;49.246;9.410;2022-12-07T15:13:48;22.57;;;10.97;;
69185;SDS011;56298;49.246;9.410;2022-12-07T15:16:45;25.35;;;12.82;;
69185;SDS011;56298;49.246;9.410;2022-12-07T15:19:14;21.20;;;12.27;;
69185;SDS011;56298;49.246;9.410;2022-12-07T15:21:47;19.70;;;11.73;;
69185;SDS011;56298;49.246;9.410;2022-12-07T15:24:13;23.45;;;12.35;;
69185;SDS011;56298;49.246;9.410;2022-12-07T15:26:38;21.03;;;12.30;;
69185;SDS011;56298;49.246;9.410;2022-12-07T15:29:04;22.95;;;12.55;;
69185;SDS011;56298;49.246;9.410;2022-12-07T15:31:31;23.38;;;12.45;;
69185;SDS011;56298;49.246;9.410;2022-12-07T15:33:57;35.17;;;16.92;;
69185;SDS011;56298;49.246;9.410;2022-12-07T15:36:23;34.10;;;16.83;;
69185;SDS011;56298;49.246;9.410;2022-12-07T15:38:51;32.72;;;16.60;;
69185;SDS011;56298;49.246;9.410;2022-12-07T15:41:16;25.58;;;13.52;;
69185;SDS011;56298;49.246;9.410;2022-12-07T15:43:42;24.17;;;13.10;;
69185;SDS011;56298;49.246;9.410;2022-12-07T15:46:30;23.55;;;12.90;;
69185;SDS011;56298;49.246;9.410;2022-12-07T15:48:55;22.50;;;13.23;;
69185;SDS011;56298;49.246;9.410;2022-12-07T15:51:21;25.70;;;13.80;;
69185;SDS011;56298;49.246;9.410;2022-12-07T15:53:46;27.27;;;15.60;;
69185;SDS011;56298;49.246;9.410;2022-12-07T15:56:11;33.90;;;17.63;;
69185;SDS011;56298;49.246;9.410;2022-12-07T15:58:37;40.53;;;20.83;;
69185;SDS011;56298;49.246;9.410;2022-12-07T16:01:09;49.13;;;23.70;;
69185;SDS011;56298;49.246;9.410;2022-12-07T16:03:38;39.08;;;21.70;;
69185;SDS011;56298;49.246;9.410;2022-12-07T16:06:04;30.00;;;17.23;;
69185;SDS011;56298;49.246;9.410;2022-12-07T16:08:30;27.20;;;16.10;;
69185;SDS011;56298;49.246;9.410;2022-12-07T16:10:55;30.03;;;17.77;;
69185;SDS011;56298;49.246;9.410;2022-12-07T16:13:20;30.23;;;17.80;;
69185;SDS011;56298;49.246;9.410;2022-12-07T16:15:46;29.67;;;18.20;;
69185;SDS011;56298;49.246;9.410;2022-12-07T16:18:11;28.77;;;17.40;;
69185;SDS011;56298;49.246;9.410;2022-12-07T16:20:36;31.13;;;18.13;;
69185;SDS011;56298;49.246;9.410;2022-12-07T16:23:02;30.10;;;16.67;;
69185;SDS011;56298;49.246;9.410;2022-12-07T16:25:27;27.73;;;15.63;;
69185;SDS011;56298;49.246;9.410;2022-12-07T16:27:53;29.37;;;17.10;;
69185;SDS011;56298;49.246;9.410;2022-12-07T16:30:18;26.48;;;15.65;;
69185;SDS011;56298;49.246;9.410;2022-12-07T16:32:44;27.70;;;14.87;;
69185;SDS011;56298;49.246;9.410;2022-12-07T16:35:09;24.83;;;13.40;;
69185;SDS011;56298;49.246;9.410;2022-12-07T16:37:36;24.42;;;13.75;;
69185;SDS011;56298;49.246;9.410;2022-12-07T16:40:01;22.30;;;12.90;;
69185;SDS011;56298;49.246;9.410;2022-12-07T16:42:28;23.70;;;13.40;;
69185;SDS011;56298;49.246;9.410;2022-12-07T16:44:57;21.65;;;12.20;;
69185;SDS011;56298;49.246;9.410;2022-12-07T16:47:22;24.07;;;13.37;;